Impacts TAF Board
For situational awareness. Not to be used for flight planning purposes.
IDs:

KOLM - Olympia Rgnl, WA, US

Issued at 2346 UTC 05 Dec 2019
Updated at 0109 UTC 06 Dec 2019
Potential Impact None Slight Moderate High
Time0054Z 06/02Z 06/03Z 06/04Z 06/05Z 06/06Z 06/07Z 06/08Z 06/09Z 06/10Z 06/11Z 06/12Z 06/13Z 06/14Z>>
Type OBS PRVL PRVL PRVL PRVL PRVL PRVL PRVL PRVL PRVL PRVL PRVL PRVL PRVL
VIS 10 >6 3 3 3 3 3 1 1 1 1 1 1 6
CIG 6 12 35 35 35 35 35 7 7 7 7 7 7 30
Cover OVC OVC OVC OVC OVC OVC OVC OVC OVC OVC OVC OVC OVC OVC
FltCat IFR MVFR MVFR MVFR MVFR MVFR MVFR IFR IFR IFR IFR IFR IFR MVFR
WX -- -- BR BR BR BR BR BR BR BR BR BR BR BR
WDir 90 VRB VRB VRB VRB VRB VRB 40 40 40 40 40 40 90
WSpd 5 5 2 2 2 2 2 3 3 3 3 3 3 5
WGst -- -- -- -- -- -- -- -- -- -- -- -- -- --
Raw TAF
KOLM 052346Z 0600/0624 VRB05KT P6SM BKN012 OVC050
  FM060300 VRB02KT 3SM BR OVC035
  FM060800 04003KT 1SM BR OVC007
  FM061400 09005KT 6SM BR OVC030
  FM062000 19003KT P6SM OVC020
  FM062300 18003KT 4SM -RA OVC015


Raw METAR
KOLM 060054Z 09005KT 10SM OVC006 08/07 A3002 RMK AO2 RAE20 SLP168 P0000 T00830067
KOLM 052354Z 10004KT 9SM -RA OVC008 09/07 A3003 RMK AO2 RAB54 SLP170 P0000 60000 T00890067 10100 20078 55006
KOLM 052340Z 11006KT 9SM OVC008 09/07 A3003 RMK AO2 T00890067
KOLM 052254Z 09005KT 9SM BKN012 OVC055 09/07 A3003 RMK AO2 SLP169 T00940067

METAR Board
Radar Display
Forecast Discussion
For situational awareness. Not to be used for flight planning purposes.